Terminal Aerodrome Forecast
Issued by NWS

Home | Current Version | Previous Version | Text Only | Print | Product List | Glossary Off
Versions: 1 2 3 4 5 6 7 8 9 10 11 12 13 14 15 16 17 18 19 20 21 22 23

075
FTUS43 KTOP 211728
TAFFOE
TAF
KFOE 211728Z 2118/2218 29011KT P6SM FEW250
     FM220000 21009KT P6SM FEW250
     FM221400 24006KT P6SM VCSH SCT035 BKN080=

USA.gov is the U.S. government's official web portal to all federal, state and local government web resources and services.